sensor_id;sensor_type;location;lat;lon;timestamp;temperature;humidity
7876;DHT22;69649;53.712;9.680;2024-01-16T00:01:07;-0.80;76.30
7876;DHT22;69649;53.712;9.680;2024-01-16T00:03:34;-0.90;76.20
7876;DHT22;69649;53.712;9.680;2024-01-16T00:08:47;-0.90;76.50
7876;DHT22;69649;53.712;9.680;2024-01-16T00:11:13;-0.90;76.40
7876;DHT22;69649;53.712;9.680;2024-01-16T00:13:39;-0.90;76.50
7876;DHT22;69649;53.712;9.680;2024-01-16T00:16:24;-0.90;76.60
7876;DHT22;69649;53.712;9.680;2024-01-16T00:18:50;-0.90;76.50
7876;DHT22;69649;53.712;9.680;2024-01-16T00:21:16;-0.70;76.50
7876;DHT22;69649;53.712;9.680;2024-01-16T00:23:41;-0.70;76.20
7876;DHT22;69649;53.712;9.680;2024-01-16T00:26:07;-0.70;76.00
7876;DHT22;69649;53.712;9.680;2024-01-16T00:28:33;-0.80;76.00
7876;DHT22;69649;53.712;9.680;2024-01-16T00:30:59;-0.80;76.10
7876;DHT22;69649;53.712;9.680;2024-01-16T00:33:25;-0.80;76.30
7876;DHT22;69649;53.712;9.680;2024-01-16T00:35:52;-0.70;76.30
7876;DHT22;69649;53.712;9.680;2024-01-16T00:38:18;-0.70;76.20
7876;DHT22;69649;53.712;9.680;2024-01-16T00:41:04;-0.70;75.80
7876;DHT22;69649;53.712;9.680;2024-01-16T00:43:29;-0.70;75.80
7876;DHT22;69649;53.712;9.680;2024-01-16T00:45:55;-0.70;75.60
7876;DHT22;69649;53.712;9.680;2024-01-16T00:48:21;-0.80;75.60
7876;DHT22;69649;53.712;9.680;2024-01-16T00:50:47;-0.80;75.60
7876;DHT22;69649;53.712;9.680;2024-01-16T00:53:17;-0.70;75.70
7876;DHT22;69649;53.712;9.680;2024-01-16T00:55:43;-0.70;75.80
7876;DHT22;69649;53.712;9.680;2024-01-16T00:58:09;-0.70;75.50
7876;DHT22;69649;53.712;9.680;2024-01-16T01:00:34;-0.70;75.50
7876;DHT22;69649;53.712;9.680;2024-01-16T01:03:04;-0.60;75.40
7876;DHT22;69649;53.712;9.680;2024-01-16T01:05:30;-0.60;75.10
7876;DHT22;69649;53.712;9.680;2024-01-16T01:07:57;-0.70;75.00
7876;DHT22;69649;53.712;9.680;2024-01-16T01:10:23;-0.70;75.00
7876;DHT22;69649;53.712;9.680;2024-01-16T01:12:50;-0.70;74.90
7876;DHT22;69649;53.712;9.680;2024-01-16T01:15:17;-0.70;75.10
7876;DHT22;69649;53.712;9.680;2024-01-16T01:17:43;-0.70;75.30
7876;DHT22;69649;53.712;9.680;2024-01-16T01:20:09;-0.60;75.20
7876;DHT22;69649;53.712;9.680;2024-01-16T01:22:37;-0.70;75.10
7876;DHT22;69649;53.712;9.680;2024-01-16T01:25:03;-0.70;75.20
7876;DHT22;69649;53.712;9.680;2024-01-16T01:27:29;-0.60;75.50
7876;DHT22;69649;53.712;9.680;2024-01-16T01:29:55;-0.60;75.40
7876;DHT22;69649;53.712;9.680;2024-01-16T01:32:21;-0.50;75.30
7876;DHT22;69649;53.712;9.680;2024-01-16T01:34:47;-0.50;75.10
7876;DHT22;69649;53.712;9.680;2024-01-16T01:37:13;-0.60;74.70
7876;DHT22;69649;53.712;9.680;2024-01-16T01:39:40;-0.60;74.70
7876;DHT22;69649;53.712;9.680;2024-01-16T01:42:06;-0.70;74.40
7876;DHT22;69649;53.712;9.680;2024-01-16T01:44:32;-0.70;74.90
7876;DHT22;69649;53.712;9.680;2024-01-16T01:46:58;-0.70;75.00
7876;DHT22;69649;53.712;9.680;2024-01-16T01:49:25;-0.60;75.10
7876;DHT22;69649;53.712;9.680;2024-01-16T01:51:52;-0.60;75.00
7876;DHT22;69649;53.712;9.680;2024-01-16T01:54:19;-0.70;74.70
7876;DHT22;69649;53.712;9.680;2024-01-16T01:56:47;-0.70;74.60
7876;DHT22;69649;53.712;9.680;2024-01-16T01:59:13;-0.70;74.60
7876;DHT22;69649;53.712;9.680;2024-01-16T02:01:41;-0.90;74.80
7876;DHT22;69649;53.712;9.680;2024-01-16T02:04:08;-1.00;75.10
7876;DHT22;69649;53.712;9.680;2024-01-16T02:06:34;-1.10;75.30
7876;DHT22;69649;53.712;9.680;2024-01-16T02:09:00;-1.20;75.50
7876;DHT22;69649;53.712;9.680;2024-01-16T02:11:26;-1.20;76.00
7876;DHT22;69649;53.712;9.680;2024-01-16T02:13:52;-1.10;76.00
7876;DHT22;69649;53.712;9.680;2024-01-16T02:16:22;-1.30;76.10
7876;DHT22;69649;53.712;9.680;2024-01-16T02:18:49;-1.50;77.20
7876;DHT22;69649;53.712;9.680;2024-01-16T02:21:21;-1.70;78.20
7876;DHT22;69649;53.712;9.680;2024-01-16T02:23:45;-1.80;78.80
7876;DHT22;69649;53.712;9.680;2024-01-16T02:26:11;-1.80;79.20
7876;DHT22;69649;53.712;9.680;2024-01-16T02:28:36;-1.80;79.30
7876;DHT22;69649;53.712;9.680;2024-01-16T02:31:02;-2.10;79.60
7876;DHT22;69649;53.712;9.680;2024-01-16T02:33:28;-2.00;80.10
7876;DHT22;69649;53.712;9.680;2024-01-16T02:35:54;-1.90;80.00
7876;DHT22;69649;53.712;9.680;2024-01-16T02:38:20;-2.10;79.80
7876;DHT22;69649;53.712;9.680;2024-01-16T02:40:46;-2.00;80.00
7876;DHT22;69649;53.712;9.680;2024-01-16T02:43:11;-1.90;79.70
7876;DHT22;69649;53.712;9.680;2024-01-16T02:45:37;-2.10;79.60
7876;DHT22;69649;53.712;9.680;2024-01-16T02:48:03;-2.20;80.00
7876;DHT22;69649;53.712;9.680;2024-01-16T02:50:29;-2.20;80.50
7876;DHT22;69649;53.712;9.680;2024-01-16T02:52:55;-2.00;80.60
7876;DHT22;69649;53.712;9.680;2024-01-16T02:55:21;-2.00;80.50
7876;DHT22;69649;53.712;9.680;2024-01-16T02:57:46;-2.10;80.30
7876;DHT22;69649;53.712;9.680;2024-01-16T03:00:13;-2.10;80.50
7876;DHT22;69649;53.712;9.680;2024-01-16T03:02:39;-2.20;80.80
7876;DHT22;69649;53.712;9.680;2024-01-16T03:05:05;-2.20;80.80
7876;DHT22;69649;53.712;9.680;2024-01-16T03:10:19;-2.30;81.10
7876;DHT22;69649;53.712;9.680;2024-01-16T03:12:45;-2.20;81.10
7876;DHT22;69649;53.712;9.680;2024-01-16T03:15:10;-2.10;81.10
7876;DHT22;69649;53.712;9.680;2024-01-16T03:17:36;-2.10;80.90
7876;DHT22;69649;53.712;9.680;2024-01-16T03:20:02;-2.10;80.90
7876;DHT22;69649;53.712;9.680;2024-01-16T03:22:29;-2.10;80.80
7876;DHT22;69649;53.712;9.680;2024-01-16T03:24:54;-1.90;80.70
7876;DHT22;69649;53.712;9.680;2024-01-16T03:27:20;-1.90;80.70
7876;DHT22;69649;53.712;9.680;2024-01-16T03:29:46;-1.90;80.70
7876;DHT22;69649;53.712;9.680;2024-01-16T03:32:12;-2.10;80.90
7876;DHT22;69649;53.712;9.680;2024-01-16T03:34:37;-2.10;81.10
7876;DHT22;69649;53.712;9.680;2024-01-16T03:37:03;-2.00;81.40
7876;DHT22;69649;53.712;9.680;2024-01-16T03:39:29;-1.90;81.40
7876;DHT22;69649;53.712;9.680;2024-01-16T03:41:55;-2.10;81.00
7876;DHT22;69649;53.712;9.680;2024-01-16T03:44:21;-2.10;81.10
7876;DHT22;69649;53.712;9.680;2024-01-16T03:46:47;-2.10;81.20
7876;DHT22;69649;53.712;9.680;2024-01-16T03:49:12;-2.20;81.10
7876;DHT22;69649;53.712;9.680;2024-01-16T03:51:38;-2.20;81.10
7876;DHT22;69649;53.712;9.680;2024-01-16T03:54:04;-2.30;81.10
7876;DHT22;69649;53.712;9.680;2024-01-16T03:56:29;-2.30;81.20
7876;DHT22;69649;53.712;9.680;2024-01-16T03:58:55;-2.40;81.20
7876;DHT22;69649;53.712;9.680;2024-01-16T04:01:31;-2.30;81.20
7876;DHT22;69649;53.712;9.680;2024-01-16T04:03:58;-2.50;81.20
7876;DHT22;69649;53.712;9.680;2024-01-16T04:06:24;-2.50;81.40
7876;DHT22;69649;53.712;9.680;2024-01-16T04:08:50;-2.60;81.80
7876;DHT22;69649;53.712;9.680;2024-01-16T04:11:15;-2.60;82.30
7876;DHT22;69649;53.712;9.680;2024-01-16T04:13:41;-2.40;82.60
7876;DHT22;69649;53.712;9.680;2024-01-16T04:16:08;-2.40;82.40
7876;DHT22;69649;53.712;9.680;2024-01-16T04:18:38;-2.40;82.30
7876;DHT22;69649;53.712;9.680;2024-01-16T04:21:04;-2.40;82.20
7876;DHT22;69649;53.712;9.680;2024-01-16T04:23:30;-2.60;82.00
7876;DHT22;69649;53.712;9.680;2024-01-16T04:25:56;-2.60;82.20
7876;DHT22;69649;53.712;9.680;2024-01-16T04:28:21;-2.60;82.30
7876;DHT22;69649;53.712;9.680;2024-01-16T04:30:47;-2.60;82.50
7876;DHT22;69649;53.712;9.680;2024-01-16T04:33:13;-2.60;82.70
7876;DHT22;69649;53.712;9.680;2024-01-16T04:35:39;-2.60;82.70
7876;DHT22;69649;53.712;9.680;2024-01-16T04:38:04;-2.60;82.60
7876;DHT22;69649;53.712;9.680;2024-01-16T04:40:30;-2.60;82.60
7876;DHT22;69649;53.712;9.680;2024-01-16T04:42:56;-2.50;82.60
7876;DHT22;69649;53.712;9.680;2024-01-16T04:45:21;-2.50;82.50
7876;DHT22;69649;53.712;9.680;2024-01-16T04:47:47;-2.40;82.40
7876;DHT22;69649;53.712;9.680;2024-01-16T04:50:13;-2.30;82.30
7876;DHT22;69649;53.712;9.680;2024-01-16T04:52:39;-2.40;82.10
7876;DHT22;69649;53.712;9.680;2024-01-16T04:55:05;-2.50;82.20
7876;DHT22;69649;53.712;9.680;2024-01-16T04:57:31;-2.50;82.50
7876;DHT22;69649;53.712;9.680;2024-01-16T04:59:57;-2.60;82.80
7876;DHT22;69649;53.712;9.680;2024-01-16T05:02:22;-2.50;83.00
7876;DHT22;69649;53.712;9.680;2024-01-16T05:04:48;-2.40;83.10
7876;DHT22;69649;53.712;9.680;2024-01-16T05:07:16;-2.40;83.20
7876;DHT22;69649;53.712;9.680;2024-01-16T05:09:44;-2.40;83.20
7876;DHT22;69649;53.712;9.680;2024-01-16T05:12:10;-2.40;83.30
7876;DHT22;69649;53.712;9.680;2024-01-16T05:14:36;-2.20;83.30
7876;DHT22;69649;53.712;9.680;2024-01-16T05:17:02;-2.30;83.30
7876;DHT22;69649;53.712;9.680;2024-01-16T05:19:28;-2.10;83.30
7876;DHT22;69649;53.712;9.680;2024-01-16T05:21:54;-2.10;83.20
7876;DHT22;69649;53.712;9.680;2024-01-16T05:24:19;-2.10;83.10
7876;DHT22;69649;53.712;9.680;2024-01-16T05:26:45;-2.10;83.00
7876;DHT22;69649;53.712;9.680;2024-01-16T05:29:11;-2.10;83.20
7876;DHT22;69649;53.712;9.680;2024-01-16T05:31:42;-2.00;83.10
7876;DHT22;69649;53.712;9.680;2024-01-16T05:34:08;-1.90;83.20
7876;DHT22;69649;53.712;9.680;2024-01-16T05:36:34;-2.00;83.20
7876;DHT22;69649;53.712;9.680;2024-01-16T05:39:00;-2.10;83.30
7876;DHT22;69649;53.712;9.680;2024-01-16T05:41:26;-1.90;83.60
7876;DHT22;69649;53.712;9.680;2024-01-16T05:43:52;-1.90;83.60
7876;DHT22;69649;53.712;9.680;2024-01-16T05:46:18;-1.80;83.60
7876;DHT22;69649;53.712;9.680;2024-01-16T05:48:44;-1.90;83.50
7876;DHT22;69649;53.712;9.680;2024-01-16T05:51:09;-1.90;83.60
7876;DHT22;69649;53.712;9.680;2024-01-16T05:53:35;-1.90;83.60
7876;DHT22;69649;53.712;9.680;2024-01-16T05:56:01;-1.90;83.90
7876;DHT22;69649;53.712;9.680;2024-01-16T05:58:27;-1.90;83.70
7876;DHT22;69649;53.712;9.680;2024-01-16T06:00:52;-1.90;83.70
7876;DHT22;69649;53.712;9.680;2024-01-16T06:03:18;-1.90;83.90
7876;DHT22;69649;53.712;9.680;2024-01-16T06:05:44;-1.80;84.00
7876;DHT22;69649;53.712;9.680;2024-01-16T06:08:10;-1.80;83.90
7876;DHT22;69649;53.712;9.680;2024-01-16T06:10:36;-1.70;83.90
7876;DHT22;69649;53.712;9.680;2024-01-16T06:13:02;-1.70;83.90
7876;DHT22;69649;53.712;9.680;2024-01-16T06:15:27;-1.60;83.70
7876;DHT22;69649;53.712;9.680;2024-01-16T06:17:53;-1.60;83.60
7876;DHT22;69649;53.712;9.680;2024-01-16T06:20:19;-1.60;83.60
7876;DHT22;69649;53.712;9.680;2024-01-16T06:22:45;-1.60;83.60
7876;DHT22;69649;53.712;9.680;2024-01-16T06:25:11;-1.60;83.60
7876;DHT22;69649;53.712;9.680;2024-01-16T06:27:37;-1.50;83.70
7876;DHT22;69649;53.712;9.680;2024-01-16T06:30:03;-1.50;83.90
7876;DHT22;69649;53.712;9.680;2024-01-16T06:32:29;-1.50;84.10
7876;DHT22;69649;53.712;9.680;2024-01-16T06:34:55;-1.50;84.30
7876;DHT22;69649;53.712;9.680;2024-01-16T06:37:20;-1.50;84.50
7876;DHT22;69649;53.712;9.680;2024-01-16T06:39:46;-1.40;84.70
7876;DHT22;69649;53.712;9.680;2024-01-16T06:42:12;-1.50;84.80
7876;DHT22;69649;53.712;9.680;2024-01-16T06:44:38;-1.40;84.90
7876;DHT22;69649;53.712;9.680;2024-01-16T06:47:04;-1.50;85.00
7876;DHT22;69649;53.712;9.680;2024-01-16T06:49:30;-1.40;85.10
7876;DHT22;69649;53.712;9.680;2024-01-16T06:51:56;-1.40;85.10
7876;DHT22;69649;53.712;9.680;2024-01-16T06:54:23;-1.30;85.20
7876;DHT22;69649;53.712;9.680;2024-01-16T06:56:49;-1.30;85.20
7876;DHT22;69649;53.712;9.680;2024-01-16T06:59:15;-1.30;85.20
7876;DHT22;69649;53.712;9.680;2024-01-16T07:01:41;-1.30;85.20
7876;DHT22;69649;53.712;9.680;2024-01-16T07:04:07;-1.30;85.10
7876;DHT22;69649;53.712;9.680;2024-01-16T07:06:33;-1.30;85.10
7876;DHT22;69649;53.712;9.680;2024-01-16T07:08:59;-1.30;85.10
7876;DHT22;69649;53.712;9.680;2024-01-16T07:11:24;-1.30;85.10
7876;DHT22;69649;53.712;9.680;2024-01-16T07:13:50;-1.30;85.20
7876;DHT22;69649;53.712;9.680;2024-01-16T07:16:16;-1.20;85.20
7876;DHT22;69649;53.712;9.680;2024-01-16T07:18:42;-1.30;85.10
7876;DHT22;69649;53.712;9.680;2024-01-16T07:21:18;-1.20;85.20
7876;DHT22;69649;53.712;9.680;2024-01-16T07:23:44;-1.30;85.10
7876;DHT22;69649;53.712;9.680;2024-01-16T07:26:10;-1.30;85.20
7876;DHT22;69649;53.712;9.680;2024-01-16T07:28:36;-1.30;85.10
7876;DHT22;69649;53.712;9.680;2024-01-16T07:31:02;-1.20;85.10
7876;DHT22;69649;53.712;9.680;2024-01-16T07:33:27;-1.20;85.10
7876;DHT22;69649;53.712;9.680;2024-01-16T07:35:54;-1.30;85.10
7876;DHT22;69649;53.712;9.680;2024-01-16T07:38:20;-1.20;85.00
7876;DHT22;69649;53.712;9.680;2024-01-16T07:40:46;-1.30;85.00
7876;DHT22;69649;53.712;9.680;2024-01-16T07:43:12;-1.30;85.00
7876;DHT22;69649;53.712;9.680;2024-01-16T07:45:38;-1.20;85.00
7876;DHT22;69649;53.712;9.680;2024-01-16T07:48:04;-1.20;85.00
7876;DHT22;69649;53.712;9.680;2024-01-16T07:50:30;-1.20;84.90
7876;DHT22;69649;53.712;9.680;2024-01-16T07:52:56;-1.30;84.90
7876;DHT22;69649;53.712;9.680;2024-01-16T07:55:22;-1.30;84.80
7876;DHT22;69649;53.712;9.680;2024-01-16T07:57:47;-1.30;84.90
7876;DHT22;69649;53.712;9.680;2024-01-16T08:00:13;-1.10;85.00
7876;DHT22;69649;53.712;9.680;2024-01-16T08:02:39;-1.10;84.90
7876;DHT22;69649;53.712;9.680;2024-01-16T08:05:07;-1.10;85.00
7876;DHT22;69649;53.712;9.680;2024-01-16T08:07:33;-1.10;85.00
7876;DHT22;69649;53.712;9.680;2024-01-16T08:12:39;-1.00;85.10
7876;DHT22;69649;53.712;9.680;2024-01-16T08:15:05;-0.90;85.10
7876;DHT22;69649;53.712;9.680;2024-01-16T08:17:33;-0.90;85.20
7876;DHT22;69649;53.712;9.680;2024-01-16T08:19:59;-0.80;85.20
7876;DHT22;69649;53.712;9.680;2024-01-16T08:22:25;-0.80;85.20
7876;DHT22;69649;53.712;9.680;2024-01-16T08:24:51;-0.70;85.20
7876;DHT22;69649;53.712;9.680;2024-01-16T08:27:16;-0.80;85.20
7876;DHT22;69649;53.712;9.680;2024-01-16T08:29:42;-0.70;85.20
7876;DHT22;69649;53.712;9.680;2024-01-16T08:32:08;-0.70;85.10
7876;DHT22;69649;53.712;9.680;2024-01-16T08:34:34;-0.70;85.20
7876;DHT22;69649;53.712;9.680;2024-01-16T08:37:00;-0.70;85.20
7876;DHT22;69649;53.712;9.680;2024-01-16T08:39:25;-0.70;85.20
7876;DHT22;69649;53.712;9.680;2024-01-16T08:41:54;-0.70;85.10
7876;DHT22;69649;53.712;9.680;2024-01-16T08:44:19;-0.70;85.20
7876;DHT22;69649;53.712;9.680;2024-01-16T08:46:45;-0.60;85.20
7876;DHT22;69649;53.712;9.680;2024-01-16T08:49:11;-0.60;85.20
7876;DHT22;69649;53.712;9.680;2024-01-16T08:51:39;-0.60;85.10
7876;DHT22;69649;53.712;9.680;2024-01-16T08:54:07;-0.60;85.00
7876;DHT22;69649;53.712;9.680;2024-01-16T08:56:32;-0.60;85.00
7876;DHT22;69649;53.712;9.680;2024-01-16T08:58:58;-0.60;85.00
7876;DHT22;69649;53.712;9.680;2024-01-16T09:04:13;-0.60;84.80
7876;DHT22;69649;53.712;9.680;2024-01-16T09:06:38;-0.50;84.80
7876;DHT22;69649;53.712;9.680;2024-01-16T09:09:04;-0.60;84.70
7876;DHT22;69649;53.712;9.680;2024-01-16T09:11:30;-0.60;84.70
7876;DHT22;69649;53.712;9.680;2024-01-16T09:13:57;-0.60;84.70
7876;DHT22;69649;53.712;9.680;2024-01-16T09:16:23;-0.50;84.70
7876;DHT22;69649;53.712;9.680;2024-01-16T09:18:49;-0.50;84.70
7876;DHT22;69649;53.712;9.680;2024-01-16T09:21:15;-0.40;84.60
7876;DHT22;69649;53.712;9.680;2024-01-16T09:23:41;-0.40;84.50
7876;DHT22;69649;53.712;9.680;2024-01-16T09:26:07;-0.40;84.40
7876;DHT22;69649;53.712;9.680;2024-01-16T09:28:33;-0.50;84.30
7876;DHT22;69649;53.712;9.680;2024-01-16T09:30:59;-0.50;84.20
7876;DHT22;69649;53.712;9.680;2024-01-16T09:33:25;-0.50;84.00
7876;DHT22;69649;53.712;9.680;2024-01-16T09:35:55;-0.50;84.00
7876;DHT22;69649;53.712;9.680;2024-01-16T09:38:21;-0.60;84.00
7876;DHT22;69649;53.712;9.680;2024-01-16T09:40:47;-0.60;84.00
7876;DHT22;69649;53.712;9.680;2024-01-16T09:43:13;-0.60;84.00
7876;DHT22;69649;53.712;9.680;2024-01-16T09:45:40;-0.60;84.00
7876;DHT22;69649;53.712;9.680;2024-01-16T09:48:07;-0.70;83.80
7876;DHT22;69649;53.712;9.680;2024-01-16T09:50:34;-0.60;83.80
7876;DHT22;69649;53.712;9.680;2024-01-16T09:53:00;-0.60;83.80
7876;DHT22;69649;53.712;9.680;2024-01-16T09:55:26;-0.60;83.70
7876;DHT22;69649;53.712;9.680;2024-01-16T09:57:53;-0.60;83.50
7876;DHT22;69649;53.712;9.680;2024-01-16T10:00:19;-0.60;83.50
7876;DHT22;69649;53.712;9.680;2024-01-16T10:02:46;-0.60;83.30
7876;DHT22;69649;53.712;9.680;2024-01-16T10:05:13;-0.50;83.50
7876;DHT22;69649;53.712;9.680;2024-01-16T10:07:41;-0.40;83.50
7876;DHT22;69649;53.712;9.680;2024-01-16T10:10:09;-0.40;83.30
7876;DHT22;69649;53.712;9.680;2024-01-16T10:12:39;-0.40;83.20
7876;DHT22;69649;53.712;9.680;2024-01-16T10:15:06;-0.40;83.10
7876;DHT22;69649;53.712;9.680;2024-01-16T10:17:55;-0.30;83.10
7876;DHT22;69649;53.712;9.680;2024-01-16T10:20:32;-0.30;83.00
7876;DHT22;69649;53.712;9.680;2024-01-16T10:22:59;-0.30;82.90
7876;DHT22;69649;53.712;9.680;2024-01-16T10:25:25;-0.30;83.00
7876;DHT22;69649;53.712;9.680;2024-01-16T10:28:05;-0.20;83.30
7876;DHT22;69649;53.712;9.680;2024-01-16T10:30:33;-0.10;83.30
7876;DHT22;69649;53.712;9.680;2024-01-16T10:33:14;-0.10;83.00
7876;DHT22;69649;53.712;9.680;2024-01-16T10:35:41;-0.10;82.90
7876;DHT22;69649;53.712;9.680;2024-01-16T10:38:07;-0.10;83.00
7876;DHT22;69649;53.712;9.680;2024-01-16T10:40:33;-0.10;83.00
7876;DHT22;69649;53.712;9.680;2024-01-16T10:43:02;-0.10;82.90
7876;DHT22;69649;53.712;9.680;2024-01-16T10:45:28;-0.10;83.00
7876;DHT22;69649;53.712;9.680;2024-01-16T10:50:32;-0.10;83.00
7876;DHT22;69649;53.712;9.680;2024-01-16T10:53:00;-0.20;83.10
7876;DHT22;69649;53.712;9.680;2024-01-16T10:55:28;-0.20;83.20
7876;DHT22;69649;53.712;9.680;2024-01-16T10:57:56;-0.10;83.20
7876;DHT22;69649;53.712;9.680;2024-01-16T11:00:23;-0.10;83.00
7876;DHT22;69649;53.712;9.680;2024-01-16T11:05:20;0.00;82.90
7876;DHT22;69649;53.712;9.680;2024-01-16T11:07:48;0.00;82.30
7876;DHT22;69649;53.712;9.680;2024-01-16T11:10:14;0.00;82.10
7876;DHT22;69649;53.712;9.680;2024-01-16T11:12:40;0.00;81.90
7876;DHT22;69649;53.712;9.680;2024-01-16T11:15:08;0.00;81.70
7876;DHT22;69649;53.712;9.680;2024-01-16T11:20:26;0.00;81.80
7876;DHT22;69649;53.712;9.680;2024-01-16T11:22:55;0.10;81.70
7876;DHT22;69649;53.712;9.680;2024-01-16T11:25:32;0.30;81.80
7876;DHT22;69649;53.712;9.680;2024-01-16T11:28:11;0.10;81.40
7876;DHT22;69649;53.712;9.680;2024-01-16T11:30:38;0.10;81.50
7876;DHT22;69649;53.712;9.680;2024-01-16T11:33:04;0.20;81.70
7876;DHT22;69649;53.712;9.680;2024-01-16T11:35:39;0.20;81.50
7876;DHT22;69649;53.712;9.680;2024-01-16T11:38:14;0.20;81.70
7876;DHT22;69649;53.712;9.680;2024-01-16T11:40:38;0.30;81.20
7876;DHT22;69649;53.712;9.680;2024-01-16T11:46:10;0.30;80.90
7876;DHT22;69649;53.712;9.680;2024-01-16T11:48:28;0.20;81.00
7876;DHT22;69649;53.712;9.680;2024-01-16T11:50:54;0.10;81.10
7876;DHT22;69649;53.712;9.680;2024-01-16T11:53:34;0.20;81.50
7876;DHT22;69649;53.712;9.680;2024-01-16T11:56:15;0.30;81.40
7876;DHT22;69649;53.712;9.680;2024-01-16T11:59:38;0.30;80.80
7876;DHT22;69649;53.712;9.680;2024-01-16T12:02:01;0.30;80.90
7876;DHT22;69649;53.712;9.680;2024-01-16T12:04:28;0.30;80.70
7876;DHT22;69649;53.712;9.680;2024-01-16T12:06:58;0.20;80.40
7876;DHT22;69649;53.712;9.680;2024-01-16T12:09:26;0.20;81.00
7876;DHT22;69649;53.712;9.680;2024-01-16T12:11:56;0.30;80.80
7876;DHT22;69649;53.712;9.680;2024-01-16T12:14:24;0.30;80.00
7876;DHT22;69649;53.712;9.680;2024-01-16T12:16:49;0.50;80.50
7876;DHT22;69649;53.712;9.680;2024-01-16T12:19:15;0.60;79.70
7876;DHT22;69649;53.712;9.680;2024-01-16T12:21:45;0.60;79.70
7876;DHT22;69649;53.712;9.680;2024-01-16T12:24:11;0.60;79.50
7876;DHT22;69649;53.712;9.680;2024-01-16T12:26:38;0.60;79.30
7876;DHT22;69649;53.712;9.680;2024-01-16T12:29:05;0.50;79.80
7876;DHT22;69649;53.712;9.680;2024-01-16T12:31:31;0.50;79.80
7876;DHT22;69649;53.712;9.680;2024-01-16T12:34:07;0.60;79.80
7876;DHT22;69649;53.712;9.680;2024-01-16T12:36:33;0.40;79.70
7876;DHT22;69649;53.712;9.680;2024-01-16T12:38:59;0.50;79.90
7876;DHT22;69649;53.712;9.680;2024-01-16T12:41:37;0.60;79.60
7876;DHT22;69649;53.712;9.680;2024-01-16T12:43:55;0.50;79.50
7876;DHT22;69649;53.712;9.680;2024-01-16T12:46:21;0.50;79.70
7876;DHT22;69649;53.712;9.680;2024-01-16T12:48:47;0.50;79.90
7876;DHT22;69649;53.712;9.680;2024-01-16T12:51:21;0.40;79.80
7876;DHT22;69649;53.712;9.680;2024-01-16T12:53:48;0.40;80.00
7876;DHT22;69649;53.712;9.680;2024-01-16T12:56:19;0.50;80.20
7876;DHT22;69649;53.712;9.680;2024-01-16T12:58:46;0.40;80.30
7876;DHT22;69649;53.712;9.680;2024-01-16T13:01:29;0.40;80.20
7876;DHT22;69649;53.712;9.680;2024-01-16T13:03:54;0.40;80.60
7876;DHT22;69649;53.712;9.680;2024-01-16T13:06:21;0.30;80.70
7876;DHT22;69649;53.712;9.680;2024-01-16T13:08:47;0.40;81.00
7876;DHT22;69649;53.712;9.680;2024-01-16T13:11:13;0.30;81.00
7876;DHT22;69649;53.712;9.680;2024-01-16T13:13:44;0.20;81.00
7876;DHT22;69649;53.712;9.680;2024-01-16T13:16:10;0.30;81.00
7876;DHT22;69649;53.712;9.680;2024-01-16T13:18:36;0.30;81.20
7876;DHT22;69649;53.712;9.680;2024-01-16T13:21:03;0.30;81.00
7876;DHT22;69649;53.712;9.680;2024-01-16T13:23:29;0.40;81.00
7876;DHT22;69649;53.712;9.680;2024-01-16T13:25:56;0.30;80.60
7876;DHT22;69649;53.712;9.680;2024-01-16T13:28:25;0.30;80.80
7876;DHT22;69649;53.712;9.680;2024-01-16T13:30:51;0.40;80.70
7876;DHT22;69649;53.712;9.680;2024-01-16T13:33:17;0.40;80.70
7876;DHT22;69649;53.712;9.680;2024-01-16T13:35:45;0.50;80.70
7876;DHT22;69649;53.712;9.680;2024-01-16T13:38:12;0.40;80.30
7876;DHT22;69649;53.712;9.680;2024-01-16T13:40:38;0.40;80.40
7876;DHT22;69649;53.712;9.680;2024-01-16T13:43:04;0.30;80.60
7876;DHT22;69649;53.712;9.680;2024-01-16T13:45:32;0.40;80.50
7876;DHT22;69649;53.712;9.680;2024-01-16T13:47:59;0.50;80.50
7876;DHT22;69649;53.712;9.680;2024-01-16T13:50:27;0.40;80.50
7876;DHT22;69649;53.712;9.680;2024-01-16T13:52:53;0.50;80.60
7876;DHT22;69649;53.712;9.680;2024-01-16T13:55:21;0.40;80.10
7876;DHT22;69649;53.712;9.680;2024-01-16T13:57:47;0.30;80.50
7876;DHT22;69649;53.712;9.680;2024-01-16T14:00:14;0.30;80.60
7876;DHT22;69649;53.712;9.680;2024-01-16T14:02:46;0.40;80.70
7876;DHT22;69649;53.712;9.680;2024-01-16T14:05:19;0.40;80.30
7876;DHT22;69649;53.712;9.680;2024-01-16T14:07:45;0.30;80.40
7876;DHT22;69649;53.712;9.680;2024-01-16T14:10:13;0.40;80.40
7876;DHT22;69649;53.712;9.680;2024-01-16T14:12:40;0.30;80.40
7876;DHT22;69649;53.712;9.680;2024-01-16T14:15:08;0.20;80.50
7876;DHT22;69649;53.712;9.680;2024-01-16T14:17:37;0.20;80.80
7876;DHT22;69649;53.712;9.680;2024-01-16T14:20:04;0.20;81.10
7876;DHT22;69649;53.712;9.680;2024-01-16T14:22:31;0.30;81.10
7876;DHT22;69649;53.712;9.680;2024-01-16T14:24:56;0.30;81.00
7876;DHT22;69649;53.712;9.680;2024-01-16T14:27:22;0.20;80.30
7876;DHT22;69649;53.712;9.680;2024-01-16T14:29:49;0.20;80.20
7876;DHT22;69649;53.712;9.680;2024-01-16T14:32:16;0.20;80.40
7876;DHT22;69649;53.712;9.680;2024-01-16T14:34:41;0.20;80.30
7876;DHT22;69649;53.712;9.680;2024-01-16T14:37:07;0.20;80.30
7876;DHT22;69649;53.712;9.680;2024-01-16T14:39:33;0.20;80.20
7876;DHT22;69649;53.712;9.680;2024-01-16T14:42:01;0.10;80.10
7876;DHT22;69649;53.712;9.680;2024-01-16T14:44:28;0.00;80.10
7876;DHT22;69649;53.712;9.680;2024-01-16T14:46:53;0.10;80.30
7876;DHT22;69649;53.712;9.680;2024-01-16T14:49:20;0.20;80.20
7876;DHT22;69649;53.712;9.680;2024-01-16T14:51:46;0.20;79.90
7876;DHT22;69649;53.712;9.680;2024-01-16T14:54:12;0.10;80.00
7876;DHT22;69649;53.712;9.680;2024-01-16T14:56:38;0.10;80.20
7876;DHT22;69649;53.712;9.680;2024-01-16T14:59:04;0.10;80.10
7876;DHT22;69649;53.712;9.680;2024-01-16T15:01:29;0.10;80.10
7876;DHT22;69649;53.712;9.680;2024-01-16T15:03:55;0.10;79.70
7876;DHT22;69649;53.712;9.680;2024-01-16T15:06:23;0.20;79.70
7876;DHT22;69649;53.712;9.680;2024-01-16T15:08:50;0.10;79.50
7876;DHT22;69649;53.712;9.680;2024-01-16T15:11:17;0.10;79.80
7876;DHT22;69649;53.712;9.680;2024-01-16T15:13:42;0.20;79.90
7876;DHT22;69649;53.712;9.680;2024-01-16T15:16:09;0.10;79.80
7876;DHT22;69649;53.712;9.680;2024-01-16T15:18:36;0.20;79.80
7876;DHT22;69649;53.712;9.680;2024-01-16T15:21:02;0.10;79.60
7876;DHT22;69649;53.712;9.680;2024-01-16T15:23:28;0.10;79.70
7876;DHT22;69649;53.712;9.680;2024-01-16T15:25:54;0.20;79.70
7876;DHT22;69649;53.712;9.680;2024-01-16T15:28:21;0.20;79.60
7876;DHT22;69649;53.712;9.680;2024-01-16T15:30:47;0.20;79.60
7876;DHT22;69649;53.712;9.680;2024-01-16T15:33:13;0.20;79.30
7876;DHT22;69649;53.712;9.680;2024-01-16T15:35:39;0.30;79.50
7876;DHT22;69649;53.712;9.680;2024-01-16T15:38:05;0.30;79.30
7876;DHT22;69649;53.712;9.680;2024-01-16T15:40:30;0.30;79.40
7876;DHT22;69649;53.712;9.680;2024-01-16T15:42:56;0.30;79.40
7876;DHT22;69649;53.712;9.680;2024-01-16T15:45:23;0.20;79.50
7876;DHT22;69649;53.712;9.680;2024-01-16T15:47:48;0.20;79.50
7876;DHT22;69649;53.712;9.680;2024-01-16T15:50:14;0.10;80.00
7876;DHT22;69649;53.712;9.680;2024-01-16T15:52:40;0.00;80.70
7876;DHT22;69649;53.712;9.680;2024-01-16T15:55:06;0.00;81.30
7876;DHT22;69649;53.712;9.680;2024-01-16T15:57:32;0.00;81.70
7876;DHT22;69649;53.712;9.680;2024-01-16T15:59:58;0.00;82.20
7876;DHT22;69649;53.712;9.680;2024-01-16T16:02:24;0.00;82.30
7876;DHT22;69649;53.712;9.680;2024-01-16T16:04:50;0.00;82.40
7876;DHT22;69649;53.712;9.680;2024-01-16T16:07:15;0.00;82.30
7876;DHT22;69649;53.712;9.680;2024-01-16T16:09:41;0.00;82.50